Time,TemperatureF,DewpointF,PressureIn,WindDirection,WindDirectionDegrees,WindSpeedMPH,WindSpeedGustMPH,Humidity,HourlyPrecipIn,Conditions,Clouds,dailyrainin,SolarRadiationWatts/m^2,SoftwareType,DateUTC
2013-03-05 00:01:00,14.0,11.0,-100.00,WNW,287,2.0,4.0,88,0.00,,,0.02,1.000000,,2013-03-05 07:01:00,
2013-03-05 00:11:00,14.0,11.0,-100.00,WNW,287,2.0,4.0,88,0.00,,,0.02,1.000000,,2013-03-05 07:11:00,
2013-03-05 00:22:00,14.0,11.0,-100.00,WNW,287,2.0,4.0,88,0.00,,,0.02,1.000000,,2013-03-05 07:22:00,
2013-03-05 00:52:00,12.0,9.0,-100.00,WNW,291,2.0,8.0,86,0.00,,,0.02,1.000000,,2013-03-05 07:52:00,
2013-03-05 01:02:00,12.0,9.0,-100.00,WNW,291,2.0,8.0,86,0.00,,,0.02,1.000000,,2013-03-05 08:02:00,
2013-03-05 01:11:00,12.0,9.0,-100.00,WNW,291,2.0,8.0,86,0.00,,,0.02,1.000000,,2013-03-05 08:11:00,
2013-03-05 01:21:00,12.0,9.0,-100.00,WNW,291,2.0,8.0,86,0.00,,,0.02,1.000000,,2013-03-05 08:21:00,
2013-03-05 01:52:00,13.0,9.0,-100.00,WNW,296,2.0,4.0,85,0.00,,,0.02,1.000000,,2013-03-05 08:52:00,
2013-03-05 02:01:00,13.0,9.0,-100.00,WNW,296,2.0,4.0,85,0.00,,,0.02,1.000000,,2013-03-05 09:01:00,
2013-03-05 02:11:00,13.0,9.0,-100.00,WNW,296,2.0,4.0,85,0.00,,,0.02,1.000000,,2013-03-05 09:11:00,
2013-03-05 02:21:00,13.0,9.0,-100.00,WNW,296,2.0,4.0,85,0.00,,,0.02,1.000000,,2013-03-05 09:21:00,
2013-03-05 02:52:00,13.0,5.0,-100.00,WNW,285,3.0,7.0,70,0.00,,,0.02,1.000000,,2013-03-05 09:52:00,
2013-03-05 03:01:00,13.0,5.0,-100.00,WNW,285,3.0,7.0,70,0.00,,,0.02,1.000000,,2013-03-05 10:01:00,
2013-03-05 03:11:00,13.0,5.0,-100.00,WNW,285,3.0,7.0,70,0.00,,,0.02,1.000000,,2013-03-05 10:11:00,
2013-03-05 03:21:00,13.0,5.0,-100.00,WNW,285,3.0,7.0,70,0.00,,,0.02,1.000000,,2013-03-05 10:21:00,
2013-03-05 03:52:00,14.0,7.0,-100.00,NW,322,2.0,5.0,72,0.00,,,0.02,1.000000,,2013-03-05 10:52:00,
2013-03-05 04:01:00,14.0,7.0,-100.00,NW,322,2.0,5.0,72,0.00,,,0.02,1.000000,,2013-03-05 11:01:00,
2013-03-05 04:11:00,14.0,7.0,-100.00,NW,322,2.0,5.0,72,0.00,,,0.02,1.000000,,2013-03-05 11:11:00,
2013-03-05 04:22:00,14.0,7.0,-100.00,NW,322,2.0,5.0,72,0.00,,,0.02,1.000000,,2013-03-05 11:22:00,
2013-03-05 04:52:00,12.0,4.0,-100.00,WNW,296,3.0,9.0,71,0.00,,,0.02,1.000000,,2013-03-05 11:52:00,
2013-03-05 05:02:00,12.0,4.0,-100.00,WNW,296,3.0,9.0,71,0.00,,,0.02,1.000000,,2013-03-05 12:02:00,
2013-03-05 05:12:00,12.0,4.0,-100.00,WNW,296,3.0,9.0,71,0.00,,,0.02,1.000000,,2013-03-05 12:12:00,
2013-03-05 05:22:00,12.0,4.0,-100.00,WNW,296,3.0,9.0,71,0.00,,,0.02,1.000000,,2013-03-05 12:22:00,
2013-03-05 05:53:00,12.0,4.0,-100.00,NE,54,2.0,7.0,69,0.00,,,0.02,1.000000,,2013-03-05 12:53:00,
2013-03-05 06:02:00,12.0,4.0,-100.00,NE,54,2.0,7.0,69,0.00,,,0.02,1.000000,,2013-03-05 13:02:00,
2013-03-05 06:11:00,12.0,4.0,-100.00,NE,54,2.0,7.0,69,0.00,,,0.02,1.000000,,2013-03-05 13:11:00,
2013-03-05 06:21:00,12.0,4.0,-100.00,NE,54,2.0,7.0,69,0.00,,,0.02,1.000000,,2013-03-05 13:21:00,
2013-03-05 06:52:00,12.0,4.0,-100.00,WNW,292,4.0,7.0,70,0.00,,,0.02,1.000000,,2013-03-05 13:52:00,
2013-03-05 07:02:00,12.0,4.0,-100.00,WNW,292,4.0,7.0,70,0.00,,,0.02,1.000000,,2013-03-05 14:02:00,
2013-03-05 07:11:00,12.0,4.0,-100.00,WNW,292,4.0,7.0,70,0.00,,,0.02,1.000000,,2013-03-05 14:11:00,
2013-03-05 07:21:00,12.0,4.0,-100.00,WNW,292,4.0,7.0,70,0.00,,,0.02,1.000000,,2013-03-05 14:21:00,
2013-03-05 07:52:00,16.0,4.0,-100.00,NW,321,2.0,6.0,58,0.00,,,0.02,14.000000,,2013-03-05 14:52:00,
2013-03-05 08:01:00,16.0,4.0,-100.00,NW,321,2.0,6.0,58,0.00,,,0.02,14.000000,,2013-03-05 15:01:00,
2013-03-05 08:11:00,16.0,4.0,-100.00,NW,321,2.0,6.0,58,0.00,,,0.02,14.000000,,2013-03-05 15:11:00,
2013-03-05 08:21:00,16.0,4.0,-100.00,NW,321,2.0,6.0,58,0.00,,,0.02,14.000000,,2013-03-05 15:21:00,
2013-03-05 08:52:00,26.0,11.0,-100.00,East,101,3.0,4.0,52,0.00,,,0.02,125.000000,,2013-03-05 15:52:00,
2013-03-05 09:01:00,26.0,11.0,-100.00,East,101,3.0,4.0,52,0.00,,,0.02,125.000000,,2013-03-05 16:01:00,
2013-03-05 09:11:00,26.0,11.0,-100.00,East,101,3.0,4.0,52,0.00,,,0.02,125.000000,,2013-03-05 16:11:00,
2013-03-05 09:21:00,26.0,11.0,-100.00,East,101,3.0,4.0,52,0.00,,,0.02,125.000000,,2013-03-05 16:21:00,
2013-03-05 09:52:00,33.0,11.0,-100.00,ESE,121,3.0,5.0,39,0.02,,,0.04,279.000000,,2013-03-05 16:52:00,
2013-03-05 10:01:00,33.0,11.0,-100.00,ESE,121,3.0,5.0,39,0.02,,,0.04,279.000000,,2013-03-05 17:01:00,
2013-03-05 10:11:00,33.0,11.0,-100.00,ESE,121,3.0,5.0,39,0.02,,,0.04,279.000000,,2013-03-05 17:11:00,
2013-03-05 10:21:00,33.0,11.0,-100.00,ESE,121,3.0,5.0,39,0.02,,,0.04,279.000000,,2013-03-05 17:21:00,
2013-03-05 10:52:00,35.0,14.0,-100.00,East,96,4.0,8.0,42,0.03,,,0.07,477.000000,,2013-03-05 17:52:00,
2013-03-05 11:02:00,35.0,14.0,-100.00,East,96,4.0,8.0,42,0.03,,,0.07,477.000000,,2013-03-05 18:02:00,
2013-03-05 11:11:00,35.0,14.0,-100.00,East,96,4.0,8.0,42,0.03,,,0.07,477.000000,,2013-03-05 18:11:00,
2013-03-05 11:22:00,35.0,14.0,-100.00,East,96,4.0,8.0,42,0.03,,,0.07,477.000000,,2013-03-05 18:22:00,
2013-03-05 11:53:00,33.0,17.0,-100.00,ESE,115,4.0,9.0,51,0.00,,,0.07,656.000000,,2013-03-05 18:53:00,
2013-03-05 12:01:00,33.0,17.0,-100.00,ESE,115,4.0,9.0,51,0.00,,,0.07,656.000000,,2013-03-05 19:01:00,
2013-03-05 12:11:00,33.0,17.0,-100.00,ESE,115,4.0,9.0,51,0.00,,,0.07,656.000000,,2013-03-05 19:11:00,
2013-03-05 12:21:00,33.0,17.0,-100.00,ESE,115,4.0,9.0,51,0.00,,,0.07,656.000000,,2013-03-05 19:21:00,
2013-03-05 12:52:00,35.0,14.0,-100.00,East,95,5.0,9.0,42,0.00,,,-99.99,756.000000,,2013-03-05 19:52:00,
2013-03-05 13:01:00,35.0,14.0,-100.00,East,95,5.0,9.0,42,0.00,,,-99.99,756.000000,,2013-03-05 20:01:00,
2013-03-05 13:11:00,35.0,14.0,-100.00,East,95,5.0,9.0,42,0.00,,,-99.99,756.000000,,2013-03-05 20:11:00,
2013-03-05 13:21:00,35.0,14.0,-100.00,East,95,5.0,9.0,42,0.00,,,-99.99,756.000000,,2013-03-05 20:21:00,
2013-03-05 13:52:00,35.0,15.0,-100.00,ESE,105,4.0,9.0,43,0.00,,,0.07,784.000000,,2013-03-05 20:52:00,
2013-03-05 14:02:00,35.0,15.0,-100.00,ESE,105,4.0,9.0,43,0.00,,,0.07,784.000000,,2013-03-05 21:02:00,
2013-03-05 14:11:00,35.0,15.0,-100.00,ESE,105,4.0,9.0,43,0.00,,,0.07,784.000000,,2013-03-05 21:11:00,
2013-03-05 14:21:00,35.0,15.0,-100.00,ESE,105,4.0,9.0,43,0.00,,,0.07,784.000000,,2013-03-05 21:21:00,
2013-03-05 14:52:00,37.0,16.0,-100.00,ESE,107,4.0,10.0,42,0.00,,,0.07,736.000000,,2013-03-05 21:52:00,
2013-03-05 15:01:00,37.0,16.0,-100.00,ESE,107,4.0,10.0,42,0.00,,,0.07,736.000000,,2013-03-05 22:01:00,
2013-03-05 15:11:00,37.0,16.0,-100.00,ESE,107,4.0,10.0,42,0.00,,,0.07,736.000000,,2013-03-05 22:11:00,
2013-03-05 15:22:00,37.0,16.0,-100.00,ESE,107,4.0,10.0,42,0.00,,,0.07,736.000000,,2013-03-05 22:22:00,
2013-03-05 15:52:00,37.0,15.0,-100.00,SE,135,4.0,9.0,40,0.00,,,0.05,625.000000,,2013-03-05 22:52:00,
2013-03-05 16:01:00,37.0,15.0,-100.00,SE,135,4.0,9.0,40,0.00,,,0.05,625.000000,,2013-03-05 23:01:00,
2013-03-05 16:11:00,37.0,15.0,-100.00,SE,135,4.0,9.0,40,0.00,,,0.05,625.000000,,2013-03-05 23:11:00,
2013-03-05 16:21:00,37.0,15.0,-100.00,SE,135,4.0,9.0,40,0.00,,,0.05,625.000000,,2013-03-05 23:21:00,
2013-03-05 16:53:00,36.0,15.0,-100.00,East,97,4.0,9.0,42,0.00,,,0.05,463.000000,,2013-03-05 23:53:00,
2013-03-05 17:01:00,36.0,15.0,-100.00,East,97,4.0,9.0,42,0.00,,,0.05,463.000000,,2013-03-06 00:01:00,
2013-03-05 17:11:00,36.0,15.0,-100.00,East,97,4.0,9.0,42,0.00,,,0.05,463.000000,,2013-03-06 00:11:00,
2013-03-05 17:21:00,36.0,15.0,-100.00,East,97,4.0,9.0,42,0.00,,,0.05,463.000000,,2013-03-06 00:21:00,
2013-03-05 17:52:00,33.0,14.0,-100.00,ESE,110,2.0,9.0,46,0.00,,,0.05,259.000000,,2013-03-06 00:52:00,
2013-03-05 18:02:00,33.0,14.0,-100.00,ESE,110,2.0,9.0,46,0.00,,,0.05,259.000000,,2013-03-06 01:02:00,
2013-03-05 18:11:00,33.0,14.0,-100.00,ESE,110,2.0,9.0,46,0.00,,,0.05,259.000000,,2013-03-06 01:11:00,
2013-03-05 18:21:00,33.0,14.0,-100.00,ESE,110,2.0,9.0,46,0.00,,,0.05,259.000000,,2013-03-06 01:21:00,
2013-03-05 18:52:00,26.0,14.0,-100.00,NE,44,2.0,4.0,61,0.00,,,0.05,22.000000,,2013-03-06 01:52:00,
2013-03-05 19:01:00,26.0,14.0,-100.00,NE,44,2.0,4.0,61,0.00,,,0.05,22.000000,,2013-03-06 02:01:00,
2013-03-05 19:11:00,26.0,14.0,-100.00,NE,44,2.0,4.0,61,0.00,,,0.05,22.000000,,2013-03-06 02:11:00,
2013-03-05 19:22:00,26.0,14.0,-100.00,NE,44,2.0,4.0,61,0.00,,,0.05,22.000000,,2013-03-06 02:22:00,
2013-03-05 19:52:00,25.0,15.0,-100.00,East,91,1.0,5.0,65,0.00,,,0.05,1.000000,,2013-03-06 02:52:00,
2013-03-05 20:02:00,25.0,15.0,-100.00,East,91,1.0,5.0,65,0.00,,,0.05,1.000000,,2013-03-06 03:02:00,
2013-03-05 20:11:00,25.0,15.0,-100.00,East,91,1.0,5.0,65,0.00,,,0.05,1.000000,,2013-03-06 03:11:00,
2013-03-05 20:21:00,25.0,15.0,-100.00,East,91,1.0,5.0,65,0.00,,,0.05,1.000000,,2013-03-06 03:21:00,
2013-03-05 20:52:00,23.0,14.0,-100.00,NW,304,2.0,3.0,67,0.00,,,0.05,1.000000,,2013-03-06 03:52:00,
2013-03-05 21:02:00,23.0,14.0,-100.00,NW,304,2.0,3.0,67,0.00,,,0.05,1.000000,,2013-03-06 04:02:00,
2013-03-05 21:11:00,23.0,14.0,-100.00,NW,304,2.0,3.0,67,0.00,,,0.05,1.000000,,2013-03-06 04:11:00,
2013-03-05 21:21:00,23.0,14.0,-100.00,NW,304,2.0,3.0,67,0.00,,,0.05,1.000000,,2013-03-06 04:21:00,
2013-03-05 21:52:00,24.0,15.0,-100.00,WNW,291,2.0,4.0,67,0.00,,,0.05,1.000000,,2013-03-06 04:52:00,
2013-03-05 22:02:00,24.0,15.0,-100.00,WNW,291,2.0,4.0,67,0.00,,,0.05,1.000000,,2013-03-06 05:02:00,
2013-03-05 22:11:00,24.0,15.0,-100.00,WNW,291,2.0,4.0,67,0.00,,,0.05,1.000000,,2013-03-06 05:11:00,
2013-03-05 22:22:00,24.0,15.0,-100.00,WNW,291,2.0,4.0,67,0.00,,,0.05,1.000000,,2013-03-06 05:22:00,
2013-03-05 22:52:00,23.0,16.0,-100.00,WNW,295,1.0,2.0,74,0.00,,,0.05,1.000000,,2013-03-06 05:52:00,
2013-03-05 23:02:00,23.0,16.0,-100.00,WNW,295,1.0,2.0,74,0.00,,,0.05,1.000000,,2013-03-06 06:02:00,
2013-03-05 23:11:00,23.0,16.0,-100.00,WNW,295,1.0,2.0,74,0.00,,,0.05,1.000000,,2013-03-06 06:11:00,
2013-03-05 23:22:00,23.0,16.0,-100.00,WNW,295,1.0,2.0,74,0.00,,,0.05,1.000000,,2013-03-06 06:22:00,
2013-03-05 23:52:00,33.0,1.0,-100.00,West,259,4.0,11.0,25,0.00,,,0.05,1.000000,,2013-03-06 06:52:00,